Time;durP1;ratioP1;P1;durP2;ratioP2;P2;SDS_P1;SDS_P2;PMS_P1;PMS_P2;Temp;Humidity;BMP_temperature;BMP_pressure;BME280_temperature;BME280_humidity;BME280_pressure;Samples;Min_cycle;Max_cycle;Signal;HPM_P1;HPM_P2
2022/10/11 00:01:23;;;;;;;0.70;0.40;;;7.90;99.50;;;;;;5013465;28;20103;-61
2022/10/11 00:03:48;;;;;;;0.40;0.30;;;7.90;99.70;;;;;;5009387;28;20025;-61
2022/10/11 00:06:14;;;;;;;0.80;0.40;;;7.90;99.80;;;;;;5009856;28;20030;-61
2022/10/11 00:08:40;;;;;;;1.02;0.40;;;7.90;99.90;;;;;;5023649;28;20523;-61
2022/10/11 00:11:06;;;;;;;0.93;0.47;;;7.90;99.90;;;;;;5016379;28;20029;-61
2022/10/11 00:13:32;;;;;;;6.50;0.60;;;7.80;99.80;;;;;;5009451;28;20497;-61
2022/10/11 00:15:58;;;;;;;8.35;0.50;;;7.80;99.80;;;;;;5012404;28;20022;-61
2022/10/11 00:18:24;;;;;;;1.95;0.40;;;7.80;99.80;;;;;;5013289;28;20097;-61
2022/10/11 00:20:58;;;;;;;1.48;0.35;;;7.70;99.90;;;;;;5015859;28;21596;-61
2022/10/11 00:23:24;;;;;;;3.08;0.40;;;7.70;99.90;;;;;;5014644;28;20022;-61
2022/10/11 00:25:56;;;;;;;0.90;0.40;;;7.60;99.90;;;;;;5041774;28;20056;-61
2022/10/11 00:28:22;;;;;;;0.90;0.50;;;7.70;99.90;;;;;;5028273;28;20069;-61
2022/10/11 00:30:47;;;;;;;1.25;0.50;;;7.70;99.90;;;;;;5028461;28;20728;-61
2022/10/11 00:33:13;;;;;;;2.15;0.40;;;7.60;99.90;;;;;;5016157;28;20075;-61
2022/10/11 00:35:40;;;;;;;0.80;0.40;;;7.60;99.90;;;;;;5017275;28;20033;-61
2022/10/11 00:38:06;;;;;;;0.95;0.40;;;7.50;99.90;;;;;;5015162;28;20030;-61
2022/10/11 00:40:31;;;;;;;2.55;0.30;;;7.50;99.90;;;;;;5013203;28;20025;-61
2022/10/11 00:42:57;;;;;;;4.65;0.40;;;7.50;99.90;;;;;;5015724;28;20124;-61
2022/10/11 00:45:25;;;;;;;2.53;0.30;;;7.50;99.90;;;;;;5016669;28;20022;-61
2022/10/11 00:47:57;;;;;;;4.22;0.60;;;7.50;99.90;;;;;;5030164;28;20040;-61
2022/10/11 00:50:24;;;;;;;2.35;0.43;;;7.50;99.90;;;;;;5020984;28;20021;-61
2022/10/11 00:52:54;;;;;;;3.83;0.60;;;7.50;99.90;;;;;;5013573;28;20482;-61
2022/10/11 00:55:21;;;;;;;19.42;0.90;;;7.40;99.90;;;;;;5027629;28;20116;-61
2022/10/11 00:57:51;;;;;;;0.47;0.30;;;7.40;99.90;;;;;;5029057;28;20459;-61
2022/10/11 01:00:18;;;;;;;3.50;0.30;;;7.30;99.90;;;;;;5012796;28;20033;-61
2022/10/11 01:02:44;;;;;;;0.80;0.40;;;7.30;99.90;;;;;;5017704;28;20030;-61
2022/10/11 01:05:14;;;;;;;1.10;0.50;;;7.30;99.90;;;;;;5014790;28;20037;-61
2022/10/11 01:07:41;;;;;;;1.52;0.60;;;7.30;99.90;;;;;;5012544;28;20029;-61
2022/10/11 01:10:07;;;;;;;1.15;0.55;;;7.40;99.90;;;;;;5014903;28;20034;-61
2022/10/11 01:12:33;;;;;;;1.77;0.60;;;7.40;99.90;;;;;;5015490;28;20535;-61
2022/10/11 01:15:11;;;;;;;1.60;0.52;;;7.40;99.90;;;;;;5013314;28;20030;-61
2022/10/11 01:17:42;;;;;;;1.95;0.60;;;7.40;99.90;;;;;;5018891;28;20117;-61
2022/10/11 01:20:26;;;;;;;2.80;0.80;;;7.30;99.90;;;;;;5017595;28;20030;-61
2022/10/11 01:23:24;;;;;;;2.25;0.82;;;7.40;99.90;;;;;;5014745;28;20445;-61
2022/10/11 01:26:12;;;;;;;2.58;1.05;;;7.40;99.90;;;;;;5016376;28;20020;-61
2022/10/11 01:29:05;;;;;;;5.30;1.60;;;7.40;99.90;;;;;;5014475;28;20367;-61
2022/10/11 01:31:38;;;;;;;4.35;1.35;;;7.40;99.90;;;;;;5012700;28;20041;-61
2022/10/11 01:34:26;;;;;;;4.78;1.17;;;7.30;99.90;;;;;;5012910;28;20030;-61
2022/10/11 01:37:09;;;;;;;20.88;2.05;;;7.40;99.90;;;;;;5016352;28;20398;-61
2022/10/11 01:39:41;;;;;;;1.98;0.85;;;7.40;99.90;;;;;;5016690;28;20028;-61
2022/10/11 01:42:09;;;;;;;1.50;0.60;;;7.30;99.90;;;;;;5013449;28;20585;-61
2022/10/11 01:44:37;;;;;;;1.45;0.70;;;7.30;99.90;;;;;;5029163;28;20033;-61
2022/10/11 01:47:02;;;;;;;1.73;0.90;;;7.20;99.90;;;;;;5013382;28;20022;-61
2022/10/11 01:49:28;;;;;;;1.92;0.93;;;7.20;99.90;;;;;;5014167;28;20096;-61
2022/10/11 01:51:56;;;;;;;2.42;0.90;;;7.20;99.90;;;;;;5014773;28;20025;-61
2022/10/11 01:54:43;;;;;;;2.45;1.02;;;7.20;99.90;;;;;;5015785;28;20537;-61
2022/10/11 01:57:41;;;;;;;2.67;1.02;;;7.20;99.90;;;;;;5016512;28;20032;-61
2022/10/11 02:00:14;;;;;;;1.65;0.60;;;7.20;99.90;;;;;;5011780;28;20058;-61
2022/10/11 02:03:11;;;;;;;2.60;0.40;;;7.10;99.90;;;;;;5018700;28;20025;-61
2022/10/11 02:05:59;;;;;;;2.13;0.60;;;7.00;99.90;;;;;;5018076;28;20111;-61
2022/10/11 02:08:50;;;;;;;5.10;0.40;;;6.80;99.90;;;;;;5016456;28;20014;-61
2022/10/11 02:11:24;;;;;;;5.18;0.40;;;6.70;99.90;;;;;;5012058;28;20029;-61
2022/10/11 02:14:12;;;;;;;2.70;0.40;;;6.60;99.90;;;;;;5016253;28;20447;-61
2022/10/11 02:17:06;;;;;;;2.85;0.30;;;6.60;99.90;;;;;;5026107;28;20043;-61
2022/10/11 02:19:38;;;;;;;3.42;0.50;;;6.60;99.90;;;;;;5012911;28;20026;-61
2022/10/11 02:22:13;;;;;;;0.75;0.47;;;6.50;99.90;;;;;;5012796;28;20026;-61
2022/10/11 02:24:43;;;;;;;3.25;0.38;;;6.60;99.90;;;;;;5018191;28;20096;-61
2022/10/11 02:27:10;;;;;;;2.33;0.40;;;6.50;99.90;;;;;;5025528;28;20025;-61
2022/10/11 02:29:38;;;;;;;0.75;0.40;;;6.50;99.90;;;;;;5013532;28;20033;-61
2022/10/11 02:32:05;;;;;;;5.93;0.55;;;6.50;99.90;;;;;;5014873;28;20378;-61
2022/10/11 02:34:36;;;;;;;5.50;0.57;;;6.50;99.90;;;;;;5025566;28;20025;-61
2022/10/11 02:37:41;;;;;;;2.47;0.50;;;6.50;99.90;;;;;;5017980;28;20030;-61
2022/10/11 02:40:09;;;;;;;6.55;0.60;;;6.50;99.90;;;;;;5016520;28;20041;-61
2022/10/11 02:42:43;;;;;;;8.95;0.57;;;6.50;99.90;;;;;;5011321;28;20065;-61
2022/10/11 02:45:17;;;;;;;2.92;0.40;;;6.40;99.90;;;;;;5016682;28;20358;-61
2022/10/11 02:47:43;;;;;;;0.52;0.40;;;6.40;99.90;;;;;;5026974;28;20055;-61
2022/10/11 02:50:11;;;;;;;0.80;0.43;;;6.40;99.90;;;;;;5026418;28;20030;-61
2022/10/11 02:52:36;;;;;;;1.10;0.40;;;6.40;99.90;;;;;;5014616;28;20033;-61
2022/10/11 02:55:02;;;;;;;0.60;0.45;;;6.40;99.90;;;;;;5010188;28;20490;-61
2022/10/11 02:57:28;;;;;;;1.60;0.70;;;6.40;99.90;;;;;;5011448;28;20030;-61
2022/10/11 02:59:53;;;;;;;6.15;0.65;;;6.40;99.90;;;;;;5011518;28;20057;-61
2022/10/11 03:02:19;;;;;;;7.80;0.65;;;6.40;99.90;;;;;;5027120;28;20082;-60
2022/10/11 03:04:44;;;;;;;0.80;0.50;;;6.40;99.90;;;;;;5025176;28;20143;-61
2022/10/11 03:07:10;;;;;;;0.85;0.40;;;6.30;99.90;;;;;;5012575;28;20033;-61
2022/10/11 03:09:36;;;;;;;0.85;0.40;;;6.30;99.90;;;;;;5011972;28;20542;-61
2022/10/11 03:12:01;;;;;;;0.50;0.40;;;6.30;99.90;;;;;;5012433;28;20037;-61
2022/10/11 03:14:27;;;;;;;1.10;0.50;;;6.30;99.90;;;;;;5010910;28;20026;-61
2022/10/11 03:16:52;;;;;;;2.63;0.60;;;6.30;99.90;;;;;;5017218;28;20100;-61
2022/10/11 03:19:18;;;;;;;4.75;0.50;;;6.30;99.90;;;;;;5012727;28;20449;-61
2022/10/11 03:21:44;;;;;;;8.95;0.47;;;6.20;99.90;;;;;;5011788;28;20363;-61
2022/10/11 03:24:09;;;;;;;0.98;0.50;;;6.00;99.90;;;;;;5016394;28;20509;-61
2022/10/11 03:26:35;;;;;;;1.05;0.30;;;5.90;99.90;;;;;;5025187;28;20072;-61
2022/10/11 03:29:00;;;;;;;1.25;0.50;;;5.90;99.90;;;;;;5016628;28;20095;-61
2022/10/11 03:31:26;;;;;;;1.40;0.50;;;5.90;99.90;;;;;;5012603;28;20033;-61
2022/10/11 03:33:51;;;;;;;1.80;0.40;;;5.90;99.90;;;;;;5011753;28;20018;-61
2022/10/11 03:36:17;;;;;;;4.03;0.40;;;5.90;99.90;;;;;;5012058;28;20022;-61
2022/10/11 03:38:42;;;;;;;0.47;0.35;;;5.90;99.90;;;;;;5017419;28;20483;-61
2022/10/11 03:41:08;;;;;;;1.17;0.50;;;5.80;99.90;;;;;;5009878;28;20042;-60
2022/10/11 03:43:34;;;;;;;1.50;0.55;;;5.80;99.90;;;;;;5014160;28;20033;-62
2022/10/11 03:45:59;;;;;;;2.05;0.80;;;5.80;99.90;;;;;;5019789;28;20477;-61
2022/10/11 03:48:25;;;;;;;11.75;0.60;;;5.90;99.90;;;;;;5012170;28;20046;-61
2022/10/11 03:50:51;;;;;;;7.60;0.50;;;5.90;99.90;;;;;;5010593;28;20505;-61
2022/10/11 03:53:16;;;;;;;1.17;0.40;;;5.90;99.90;;;;;;5015097;28;20022;-61
2022/10/11 03:55:42;;;;;;;1.10;0.63;;;5.90;99.90;;;;;;5014104;28;20026;-61
2022/10/11 03:58:08;;;;;;;3.35;0.60;;;5.90;99.90;;;;;;5014592;28;20022;-61
2022/10/11 04:00:34;;;;;;;2.35;0.43;;;5.90;99.90;;;;;;5023873;28;20467;-61
2022/10/11 04:03:02;;;;;;;2.20;0.60;;;5.90;99.90;;;;;;5015614;28;20601;-61
2022/10/11 04:05:28;;;;;;;2.47;0.50;;;5.90;99.90;;;;;;5011899;28;20032;-61
2022/10/11 04:07:53;;;;;;;1.55;0.60;;;5.80;99.90;;;;;;5023916;28;20022;-61
2022/10/11 04:10:19;;;;;;;5.95;0.90;;;5.90;99.90;;;;;;5011935;28;20052;-61
2022/10/11 04:12:45;;;;;;;0.60;0.40;;;5.80;99.90;;;;;;5015828;28;20113;-61
2022/10/11 04:15:13;;;;;;;1.45;0.40;;;5.80;99.90;;;;;;5014380;28;20076;-61
2022/10/11 04:17:39;;;;;;;0.30;0.28;;;5.90;99.90;;;;;;5009674;28;20030;-61
2022/10/11 04:20:06;;;;;;;0.95;0.40;;;5.80;99.90;;;;;;5012752;28;20025;-61
2022/10/11 04:22:32;;;;;;;0.93;0.40;;;5.80;99.90;;;;;;5024784;28;20120;-61
2022/10/11 04:24:58;;;;;;;0.80;0.50;;;5.80;99.90;;;;;;5014719;28;20030;-61
2022/10/11 04:27:26;;;;;;;1.85;0.57;;;5.80;99.90;;;;;;5011528;28;20033;-61
2022/10/11 04:29:52;;;;;;;1.08;0.57;;;5.80;99.90;;;;;;5018493;28;20120;-61
2022/10/11 04:32:17;;;;;;;2.20;0.60;;;5.90;99.90;;;;;;5010714;28;20462;-61
2022/10/11 04:34:43;;;;;;;4.28;0.98;;;5.90;99.90;;;;;;5016662;28;20041;-60
2022/10/11 04:37:08;;;;;;;2.33;0.98;;;5.90;99.90;;;;;;5012671;28;20075;-61
2022/10/11 04:39:34;;;;;;;2.70;0.60;;;5.80;99.90;;;;;;5011473;28;20018;-61
2022/10/11 04:41:59;;;;;;;1.00;0.70;;;5.90;99.90;;;;;;5011939;28;20506;-61
2022/10/11 04:44:25;;;;;;;2.47;0.77;;;5.80;99.90;;;;;;5009865;28;20014;-61
2022/10/11 04:46:50;;;;;;;1.45;0.82;;;5.90;99.90;;;;;;5012223;28;20485;-61
2022/10/11 04:49:16;;;;;;;1.65;0.68;;;5.80;99.90;;;;;;5011002;28;20079;-61
2022/10/11 04:51:42;;;;;;;1.65;0.73;;;5.90;99.90;;;;;;5034834;28;20016;-61
2022/10/11 04:54:07;;;;;;;2.35;1.00;;;5.90;99.90;;;;;;5024082;28;20033;-60
2022/10/11 04:56:33;;;;;;;1.15;0.60;;;5.90;99.90;;;;;;5010906;28;20041;-60
2022/10/11 04:58:58;;;;;;;2.78;0.77;;;5.80;99.90;;;;;;5008917;28;20026;-61
2022/10/11 05:01:24;;;;;;;1.33;0.77;;;5.80;99.90;;;;;;5010656;28;20429;-61
2022/10/11 05:03:49;;;;;;;1.20;0.70;;;5.80;99.90;;;;;;5023692;28;20155;-61
2022/10/11 05:06:14;;;;;;;4.10;0.82;;;5.80;99.90;;;;;;5012895;28;20049;-61
2022/10/11 05:08:40;;;;;;;2.47;0.63;;;5.70;99.90;;;;;;5010811;28;20032;-61
2022/10/11 05:11:09;;;;;;;2.92;0.90;;;5.60;99.90;;;;;;5029937;28;20040;-61
2022/10/11 05:13:35;;;;;;;2.17;0.80;;;5.50;99.90;;;;;;5035457;28;20088;-61
2022/10/11 05:16:04;;;;;;;2.42;0.85;;;5.30;99.90;;;;;;5034848;28;20053;-61
2022/10/11 05:18:29;;;;;;;3.65;1.02;;;5.20;99.90;;;;;;5035615;28;20532;-61
2022/10/11 05:21:05;;;;;;;4.32;1.20;;;5.10;99.90;;;;;;5035323;28;20026;-60
2022/10/11 05:23:32;;;;;;;2.10;1.13;;;5.10;99.90;;;;;;5035279;28;20028;-62
2022/10/11 05:25:58;;;;;;;2.47;1.00;;;5.10;99.90;;;;;;5035253;28;20017;-60
2022/10/11 05:28:23;;;;;;;2.72;0.80;;;5.10;99.90;;;;;;5034242;28;20033;-60
2022/10/11 05:30:49;;;;;;;1.38;0.70;;;5.20;99.90;;;;;;5035142;28;20452;-61
2022/10/11 05:33:15;;;;;;;7.80;0.77;;;5.20;99.90;;;;;;5031640;28;20397;-61
2022/10/11 05:35:40;;;;;;;1.45;0.50;;;5.30;99.90;;;;;;5033239;28;20033;-61
2022/10/11 05:38:06;;;;;;;1.40;0.60;;;5.30;99.90;;;;;;5023141;28;20033;-60
2022/10/11 05:40:32;;;;;;;1.27;0.80;;;5.30;99.90;;;;;;5027557;28;20475;-61
2022/10/11 05:42:58;;;;;;;1.63;0.80;;;5.30;99.90;;;;;;5029527;28;20041;-60
2022/10/11 05:45:23;;;;;;;1.25;0.70;;;5.30;99.90;;;;;;5024535;28;20052;-61
2022/10/11 05:47:49;;;;;;;3.10;0.95;;;5.30;99.90;;;;;;5034515;28;20056;-61
2022/10/11 05:50:14;;;;;;;2.08;1.00;;;5.30;99.90;;;;;;5033300;28;20025;-60
2022/10/11 05:52:40;;;;;;;5.35;0.85;;;5.20;99.90;;;;;;5033692;28;20096;-60
2022/10/11 05:55:06;;;;;;;2.45;1.10;;;5.20;99.90;;;;;;5026455;28;20048;-60
2022/10/11 05:57:32;;;;;;;1.38;0.70;;;5.20;99.90;;;;;;5033099;28;20148;-61
2022/10/11 05:59:57;;;;;;;1.98;0.98;;;5.20;99.90;;;;;;5032376;28;20089;-61
2022/10/11 06:02:23;;;;;;;1.60;0.80;;;5.20;99.90;;;;;;5031597;28;20025;-61
2022/10/11 06:04:48;;;;;;;1.63;0.70;;;5.20;99.90;;;;;;5032160;28;20032;-61
2022/10/11 06:07:13;;;;;;;1.35;0.63;;;5.30;99.90;;;;;;5028830;28;20030;-60
2022/10/11 06:09:39;;;;;;;0.93;0.60;;;5.30;99.90;;;;;;5032349;28;20367;-61
2022/10/11 06:12:05;;;;;;;2.25;0.80;;;5.20;99.90;;;;;;5030321;28;20099;-61
2022/10/11 06:14:31;;;;;;;1.65;1.00;;;5.20;99.90;;;;;;5034835;28;20018;-61
2022/10/11 06:16:56;;;;;;;1.73;0.75;;;5.30;99.90;;;;;;5034040;28;20505;-61
2022/10/11 06:19:22;;;;;;;1.52;0.63;;;5.30;99.90;;;;;;5032402;28;20430;-61
2022/10/11 06:21:47;;;;;;;2.50;0.63;;;5.30;99.90;;;;;;5029148;28;20036;-61
2022/10/11 06:24:13;;;;;;;1.25;0.50;;;5.30;99.90;;;;;;5031522;28;20028;-61
2022/10/11 06:26:39;;;;;;;1.50;0.70;;;5.30;99.90;;;;;;5030778;28;20543;-60
2022/10/11 06:29:04;;;;;;;1.13;0.60;;;5.30;99.90;;;;;;5016656;28;20026;-61
2022/10/11 06:31:31;;;;;;;1.13;0.60;;;5.30;99.90;;;;;;5032265;28;20377;-61
2022/10/11 06:33:57;;;;;;;1.63;0.70;;;5.40;99.90;;;;;;5031454;28;20033;-61
2022/10/11 06:36:24;;;;;;;1.10;0.60;;;5.40;99.90;;;;;;5032396;28;20032;-61
2022/10/11 06:38:53;;;;;;;2.13;0.80;;;5.50;99.90;;;;;;5028611;28;20025;-61
2022/10/11 06:41:24;;;;;;;2.85;1.45;;;5.50;99.90;;;;;;5032367;28;20037;-60
2022/10/11 06:43:50;;;;;;;4.47;1.75;;;5.50;99.90;;;;;;5032468;28;20378;-61
2022/10/11 06:46:17;;;;;;;3.15;1.30;;;5.40;99.90;;;;;;5033731;28;20021;-60
2022/10/11 06:48:45;;;;;;;1.80;1.00;;;5.40;99.90;;;;;;5033067;28;20025;-60
2022/10/11 06:51:15;;;;;;;1.23;0.90;;;5.50;99.90;;;;;;5028226;28;20060;-61
2022/10/11 06:53:41;;;;;;;1.45;0.90;;;5.60;99.90;;;;;;5021622;28;20018;-61
2022/10/11 06:56:09;;;;;;;4.90;2.20;;;5.60;99.90;;;;;;5022061;28;20063;-61
2022/10/11 06:58:35;;;;;;;3.03;1.77;;;5.60;99.90;;;;;;5032061;28;20029;-61
2022/10/11 07:01:04;;;;;;;1.70;1.30;;;5.60;99.90;;;;;;5030589;28;20570;-61
2022/10/11 07:03:30;;;;;;;2.85;1.20;;;5.70;99.90;;;;;;5026139;28;20022;-60
2022/10/11 07:06:06;;;;;;;1.92;1.00;;;5.80;99.90;;;;;;5020593;28;20029;-60
2022/10/11 07:08:32;;;;;;;1.58;0.95;;;5.90;99.90;;;;;;5032396;28;20493;-60
2022/10/11 07:11:12;;;;;;;2.92;1.00;;;6.00;99.90;;;;;;5028018;28;20036;-60
2022/10/11 07:13:39;;;;;;;1.95;1.00;;;6.10;99.90;;;;;;5016026;28;20101;-60
2022/10/11 07:16:07;;;;;;;6.13;1.92;;;6.10;99.90;;;;;;5031709;28;20106;-61
2022/10/11 07:18:33;;;;;;;3.78;1.80;;;6.20;99.90;;;;;;5031506;28;20468;-60
2022/10/11 07:21:07;;;;;;;4.93;1.88;;;6.30;99.90;;;;;;5031771;28;20457;-60
2022/10/11 07:23:33;;;;;;;6.78;2.20;;;6.40;99.90;;;;;;5032021;28;20024;-61
2022/10/11 07:25:59;;;;;;;6.60;1.90;;;6.40;99.90;;;;;;5031908;28;20040;-61
2022/10/11 07:28:25;;;;;;;4.78;2.35;;;6.50;99.90;;;;;;5031781;28;20021;-61
2022/10/11 07:30:51;;;;;;;5.22;2.72;;;6.60;99.90;;;;;;5031641;28;20475;-61
2022/10/11 07:33:16;;;;;;;6.60;3.00;;;6.60;99.90;;;;;;5027673;28;20040;-61
2022/10/11 07:35:42;;;;;;;7.93;3.72;;;6.70;99.90;;;;;;5031170;28;20144;-60
2022/10/11 07:38:08;;;;;;;9.10;3.08;;;6.80;99.90;;;;;;5031565;28;20071;-61
2022/10/11 07:40:41;;;;;;;6.05;3.20;;;6.80;99.90;;;;;;5029936;28;20021;-60
2022/10/11 07:43:06;;;;;;;7.35;3.35;;;7.00;99.90;;;;;;5031098;28;20221;-61
2022/10/11 07:45:32;;;;;;;10.27;3.72;;;7.00;99.90;;;;;;5028467;28;20025;-61
2022/10/11 07:47:57;;;;;;;5.68;3.28;;;7.10;99.90;;;;;;5030596;28;20025;-61
2022/10/11 07:50:23;;;;;;;7.72;3.60;;;7.20;99.90;;;;;;5031605;28;20030;-61
2022/10/11 07:52:49;;;;;;;11.15;4.30;;;7.20;99.90;;;;;;5031291;28;20425;-61
2022/10/11 07:55:15;;;;;;;9.63;4.28;;;7.30;99.90;;;;;;5029212;28;20026;-61
2022/10/11 07:57:40;;;;;;;9.48;4.60;;;7.40;99.90;;;;;;5031041;28;20030;-61
2022/10/11 08:00:07;;;;;;;7.32;4.05;;;7.50;99.90;;;;;;5031250;28;20037;-61
2022/10/11 08:02:32;;;;;;;7.53;4.18;;;7.50;99.90;;;;;;5030812;28;20037;-61
2022/10/11 08:04:58;;;;;;;7.88;4.40;;;7.60;99.90;;;;;;5030983;28;20029;-61
2022/10/11 08:07:23;;;;;;;9.90;5.00;;;7.70;99.90;;;;;;5031087;28;20028;-61
2022/10/11 08:09:49;;;;;;;9.52;4.20;;;7.80;99.90;;;;;;5029296;28;20029;-61
2022/10/11 08:12:14;;;;;;;13.50;4.93;;;7.90;99.90;;;;;;5029949;28;20551;-61
2022/10/11 08:14:42;;;;;;;12.65;5.35;;;8.00;99.90;;;;;;5023432;28;20037;-61
2022/10/11 08:17:08;;;;;;;9.15;5.05;;;8.10;99.90;;;;;;5027077;28;20076;-61
2022/10/11 08:19:34;;;;;;;8.93;4.15;;;8.10;99.90;;;;;;5029557;28;20119;-60
2022/10/11 08:22:00;;;;;;;11.23;5.53;;;8.20;99.90;;;;;;5022334;28;20161;-61
2022/10/11 08:24:26;;;;;;;16.17;7.05;;;8.30;99.90;;;;;;5029448;28;20026;-61
2022/10/11 08:26:51;;;;;;;9.98;5.10;;;8.50;99.90;;;;;;5022368;28;20029;-61
2022/10/11 08:29:17;;;;;;;9.50;4.95;;;8.50;99.90;;;;;;5032386;28;20474;-61
2022/10/11 08:31:46;;;;;;;13.77;5.70;;;8.60;99.90;;;;;;5024641;28;20017;-61
2022/10/11 08:34:11;;;;;;;9.18;5.57;;;8.70;99.90;;;;;;5015424;28;20029;-61
2022/10/11 08:36:37;;;;;;;13.80;6.28;;;8.80;99.90;;;;;;5021103;28;20397;-61
2022/10/11 08:39:04;;;;;;;8.68;4.68;;;8.90;99.90;;;;;;5039015;28;20029;-61
2022/10/11 08:41:41;;;;;;;7.40;4.40;;;9.00;99.90;;;;;;5010959;28;20041;-61
2022/10/11 08:44:37;;;;;;;14.50;5.20;;;9.10;99.90;;;;;;5030734;28;20104;-61
2022/10/11 08:47:27;;;;;;;10.20;5.55;;;9.20;99.90;;;;;;5035007;28;20060;-61
2022/10/11 08:49:53;;;;;;;8.60;3.50;;;9.30;99.90;;;;;;5023630;28;20037;-62
2022/10/11 08:52:36;;;;;;;8.07;2.83;;;9.40;99.90;;;;;;5033252;28;20080;-61
2022/10/11 08:55:06;;;;;;;4.60;2.55;;;9.50;99.90;;;;;;5032406;28;20032;-61
2022/10/11 08:57:34;;;;;;;5.95;3.00;;;9.70;99.90;;;;;;5031877;28;20017;-61
2022/10/11 09:00:13;;;;;;;4.85;2.53;;;9.70;99.90;;;;;;5032800;28;20061;-61
2022/10/11 09:03:03;;;;;;;7.18;3.10;;;9.90;99.90;;;;;;5032848;28;20117;-61
2022/10/11 09:05:34;;;;;;;4.60;2.30;;;10.00;99.90;;;;;;5018051;28;20025;-62
2022/10/11 09:08:32;;;;;;;6.43;2.75;;;10.10;99.90;;;;;;5048346;28;20057;-61
2022/10/11 09:11:19;;;;;;;5.82;2.28;;;10.30;99.90;;;;;;5030878;28;20017;-62
2022/10/11 09:13:54;;;;;;;5.20;2.83;;;10.40;99.90;;;;;;5033597;28;20115;-62
2022/10/11 09:16:46;;;;;;;4.47;2.38;;;10.50;99.90;;;;;;5034213;28;20144;-62
2022/10/11 09:19:49;;;;;;;4.88;2.60;;;10.60;99.90;;;;;;5034067;28;20470;-61
2022/10/11 09:22:43;;;;;;;5.68;2.03;;;10.80;99.90;;;;;;5031072;28;20484;-61
2022/10/11 09:25:21;;;;;;;7.25;2.92;;;11.00;99.90;;;;;;5017544;28;20105;-62
2022/10/11 09:27:58;;;;;;;3.97;2.40;;;11.10;99.90;;;;;;5033886;28;20168;-62
2022/10/11 09:30:24;;;;;;;11.73;3.33;;;11.30;99.90;;;;;;5025205;28;20477;-62
2022/10/11 09:33:12;;;;;;;8.88;3.20;;;11.40;99.90;;;;;;5032751;28;20118;-62
2022/10/11 09:35:41;;;;;;;7.30;3.33;;;11.60;99.90;;;;;;5031010;28;20052;-62
2022/10/11 09:38:25;;;;;;;7.25;2.60;;;11.80;99.90;;;;;;5033830;28;20075;-62
2022/10/11 09:41:13;;;;;;;7.88;2.58;;;12.00;99.90;;;;;;5031725;28;20028;-61
2022/10/11 09:43:39;;;;;;;5.60;1.83;;;12.20;99.90;;;;;;5033554;28;20465;-62
2022/10/11 09:46:36;;;;;;;6.00;1.80;;;12.40;99.90;;;;;;5035037;28;20028;-62
2022/10/11 09:49:09;;;;;;;5.53;1.77;;;12.70;99.90;;;;;;5036028;28;20032;-62
2022/10/11 09:51:36;;;;;;;6.43;2.17;;;13.00;99.90;;;;;;5033674;28;20026;-62
2022/10/11 09:54:04;;;;;;;5.63;2.25;;;13.20;99.90;;;;;;5031866;28;20034;-62
2022/10/11 09:56:32;;;;;;;5.70;1.70;;;13.40;99.90;;;;;;5036560;28;20022;-62
2022/10/11 09:59:15;;;;;;;5.43;1.55;;;13.70;99.90;;;;;;5041459;28;20029;-62
2022/10/11 10:01:41;;;;;;;6.20;1.63;;;14.10;99.90;;;;;;5029485;28;20017;-62
2022/10/11 10:04:12;;;;;;;3.40;1.38;;;14.40;99.90;;;;;;5047930;28;20112;-62
2022/10/11 10:06:38;;;;;;;3.22;1.17;;;14.80;99.90;;;;;;5040593;28;20052;-62
2022/10/11 10:09:27;;;;;;;3.97;1.00;;;15.20;99.90;;;;;;5036580;28;20575;-62
2022/10/11 10:11:55;;;;;;;5.05;0.88;;;15.90;99.90;;;;;;5031711;28;20109;-63
2022/10/11 10:14:29;;;;;;;3.83;1.02;;;17.00;99.90;;;;;;5033080;28;20397;-62
2022/10/11 10:17:04;;;;;;;6.07;1.45;;;20.20;99.90;;;;;;5033360;28;20108;-63
2022/10/11 10:19:53;;;;;;;3.95;1.00;;;23.60;94.90;;;;;;5032735;28;20017;-63
2022/10/11 10:22:29;;;;;;;3.15;0.90;;;26.30;88.70;;;;;;5032595;28;20032;-63
2022/10/11 10:24:57;;;;;;;4.10;1.23;;;29.30;77.70;;;;;;5033321;28;20025;-63
2022/10/11 10:27:26;;;;;;;3.55;1.25;;;31.70;68.50;;;;;;5031304;28;20036;-63
2022/10/11 10:30:18;;;;;;;4.68;1.23;;;33.90;59.20;;;;;;5032695;28;20025;-63
2022/10/11 10:32:50;;;;;;;5.13;1.60;;;35.40;49.60;;;;;;5032873;28;20116;-63
2022/10/11 10:35:37;;;;;;;3.22;1.23;;;37.00;47.90;;;;;;5032328;28;20075;-63
2022/10/11 10:38:27;;;;;;;3.83;1.10;;;38.70;45.50;;;;;;5024771;28;20013;-63
2022/10/11 10:41:02;;;;;;;3.83;1.13;;;39.90;42.60;;;;;;5031590;28;20505;-63
2022/10/11 10:43:38;;;;;;;2.88;0.93;;;41.20;40.60;;;;;;5030972;28;20495;-63
2022/10/11 10:46:07;;;;;;;3.20;1.23;;;42.20;39.00;;;;;;5031786;28;20029;-64
2022/10/11 10:48:57;;;;;;;4.03;1.42;;;42.90;37.40;;;;;;5033795;28;20025;-64
2022/10/11 10:51:46;;;;;;;3.75;1.42;;;43.40;35.20;;;;;;5030782;28;20021;-64
2022/10/11 10:54:44;;;;;;;3.75;1.00;;;44.50;34.60;;;;;;5031454;28;20524;-64
2022/10/11 10:57:17;;;;;;;3.17;1.05;;;45.50;33.70;;;;;;5025513;28;20475;-64
2022/10/11 10:59:55;;;;;;;2.75;1.00;;;46.40;32.10;;;;;;5033667;28;20033;-64
2022/10/11 11:02:46;;;;;;;2.70;1.02;;;47.20;31.40;;;;;;5042191;28;20021;-64
2022/10/11 11:05:27;;;;;;;2.58;1.30;;;47.70;30.90;;;;;;5045146;28;20021;-64
2022/10/11 11:08:28;;;;;;;3.38;1.67;;;48.40;29.90;;;;;;5035705;28;20049;-64
2022/10/11 11:11:02;;;;;;;3.63;1.55;;;48.90;29.50;;;;;;5037557;28;20021;-64
2022/10/11 11:14:05;;;;;;;3.55;1.77;;;49.30;29.00;;;;;;5036108;28;20028;-64
2022/10/11 11:16:30;;;;;;;3.55;1.40;;;49.70;28.50;;;;;;5026961;28;20644;-64
2022/10/11 11:19:06;;;;;;;4.60;1.63;;;49.90;28.30;;;;;;5032574;28;20052;-65
2022/10/11 11:21:42;;;;;;;5.82;2.28;;;50.30;28.00;;;;;;5030956;28;20022;-64
2022/10/11 11:24:36;;;;;;;2.97;1.70;;;50.60;27.80;;;;;;5039262;28;20550;-64
2022/10/11 11:27:36;;;;;;;4.47;2.20;;;50.70;27.50;;;;;;5032031;28;20030;-64
2022/10/11 11:30:09;;;;;;;2.78;1.55;;;51.10;27.20;;;;;;5027832;28;20065;-64
2022/10/11 11:32:47;;;;;;;3.22;1.77;;;51.10;26.70;;;;;;5031369;28;20033;-64
2022/10/11 11:35:31;;;;;;;3.53;1.80;;;51.00;26.50;;;;;;5030064;28;20036;-64
2022/10/11 11:38:02;;;;;;;3.10;1.75;;;50.20;26.10;;;;;;5028839;28;20021;-64
2022/10/11 11:40:42;;;;;;;3.88;2.10;;;49.70;26.10;;;;;;5028797;28;20036;-64
2022/10/11 11:43:22;;;;;;;4.88;1.92;;;49.30;26.10;;;;;;5028950;28;20136;-64
2022/10/11 11:45:57;;;;;;;4.18;1.90;;;49.00;26.10;;;;;;5028061;28;20029;-64
2022/10/11 11:48:25;;;;;;;3.25;1.85;;;49.00;26.10;;;;;;5028859;28;20045;-64
2022/10/11 11:50:56;;;;;;;5.25;1.83;;;48.90;26.10;;;;;;5029081;28;20031;-64
2022/10/11 11:53:48;;;;;;;2.55;1.52;;;48.90;26.10;;;;;;5027232;28;20022;-64
2022/10/11 11:56:50;;;;;;;3.47;1.77;;;49.10;26.30;;;;;;5026032;28;20014;-64
2022/10/11 11:59:23;;;;;;;4.72;2.20;;;49.00;26.10;;;;;;5028220;28;20048;-64
2022/10/11 12:02:18;;;;;;;4.13;2.20;;;48.70;26.00;;;;;;5012138;28;20117;-64
2022/10/11 12:04:47;;;;;;;4.57;2.20;;;48.80;26.10;;;;;;5009042;28;20029;-64
2022/10/11 12:07:22;;;;;;;6.03;1.95;;;48.40;25.60;;;;;;5027517;28;20022;-64
2022/10/11 12:09:51;;;;;;;4.68;2.13;;;46.90;25.50;;;;;;5030650;28;20475;-64
2022/10/11 12:12:33;;;;;;;4.93;2.08;;;46.90;26.20;;;;;;5028006;28;20233;-64
2022/10/11 12:15:07;;;;;;;3.78;2.05;;;47.30;26.30;;;;;;5031035;28;20029;-64
2022/10/11 12:17:33;;;;;;;5.70;2.67;;;47.60;26.20;;;;;;5029641;28;20018;-64
2022/10/11 12:20:23;;;;;;;4.07;2.10;;;47.50;26.10;;;;;;5031305;28;20049;-64
2022/10/11 12:22:48;;;;;;;4.82;2.20;;;47.40;26.20;;;;;;5027182;28;20022;-64
2022/10/11 12:25:14;;;;;;;3.30;1.77;;;47.40;26.10;;;;;;5032376;28;20021;-64
2022/10/11 12:27:41;;;;;;;3.85;1.88;;;47.50;26.10;;;;;;5032109;28;20018;-64
2022/10/11 12:30:46;;;;;;;4.90;2.53;;;47.80;26.00;;;;;;5031362;28;20090;-64
2022/10/11 12:33:17;;;;;;;3.73;2.10;;;46.90;25.40;;;;;;5032823;28;20036;-64
2022/10/11 12:35:55;;;;;;;3.35;2.15;;;46.60;26.20;;;;;;5031627;28;20026;-64
2022/10/11 12:38:24;;;;;;;4.65;1.80;;;46.70;26.30;;;;;;5031882;28;20497;-64
2022/10/11 12:40:59;;;;;;;4.75;2.33;;;47.10;26.30;;;;;;5029811;28;20025;-64
2022/10/11 12:43:28;;;;;;;3.63;2.03;;;47.30;26.10;;;;;;5032109;28;20030;-64
2022/10/11 12:45:54;;;;;;;5.85;2.45;;;47.30;26.00;;;;;;5038351;28;20017;-64
2022/10/11 12:48:28;;;;;;;5.32;2.13;;;47.10;25.90;;;;;;5034665;28;20096;-64
2022/10/11 12:51:25;;;;;;;4.70;2.15;;;47.00;25.90;;;;;;5031616;28;20041;-64
2022/10/11 12:54:34;;;;;;;5.75;2.28;;;46.80;25.80;;;;;;5028550;28;20027;-64
2022/10/11 12:57:33;;;;;;;6.05;2.53;;;45.60;25.50;;;;;;5032671;28;20014;-64
2022/10/11 13:00:17;;;;;;;5.35;2.50;;;44.50;25.50;;;;;;5030325;28;20026;-64
2022/10/11 13:02:43;;;;;;;6.50;2.13;;;42.40;25.50;;;;;;5031151;28;20037;-64
2022/10/11 13:05:24;;;;;;;3.90;1.65;;;40.30;26.70;;;;;;5033973;28;20021;-64
2022/10/11 13:07:52;;;;;;;4.85;2.00;;;40.50;27.30;;;;;;5031973;28;20025;-64
2022/10/11 13:10:27;;;;;;;4.30;1.88;;;40.50;27.00;;;;;;5019091;28;20042;-64
2022/10/11 13:12:55;;;;;;;2.80;1.45;;;39.70;26.80;;;;;;5017529;28;20025;-64
2022/10/11 13:15:23;;;;;;;4.03;1.40;;;40.20;27.50;;;;;;5036340;28;20024;-64
2022/10/11 13:17:51;;;;;;;3.03;1.40;;;41.30;27.30;;;;;;5031820;28;20112;-64